Ana Sayfa
METAR-TAF:

METAR-TAF

Havaalanları :

Zonguldak Havalimanı

Zonguldak, Türkiye

Enlem: 41-27N, Boylam: 031-48E, yükseklik: 136 m

Güncel hava durumu gözlemi

Rapor saat 10:50 UTC de 1 saat ve 11 dakika önce yapıldı.
Rüzgar kuzeydan 10 kt
Sıcaklık 18°C
Nem 56%
Basınç 1027 hPa
Görüş mesafesi 10 km veya daha fazla
3500 ft yükseklikte az bulutlu
10000 ft yükseklikte parçalı bulutlu

METAR: LTAS 241050Z 35010KT 9999 FEW035 SCT100 18/09 Q1027

Saat: 15:01 (12:01 UTC)

Tahmin

Rapor saat 10:40 UTC de 1 saat ve 21 dakika önce yapıldı.
Ayın 24'si saat 12 UTC'den ayın 24'si saat 21 UTC'ye kadar geçerli Tahmin
Rüzgar değişken yönden 2 kt
Görüş mesafesi 10 km veya daha fazla
4000 ft yükseklikte parçalı bulutlu
10000 ft yükseklikte parçalı çok bulutlu

TAF: LTAS 241040Z 2412/2421 VRB02KT 9999 SCT040 BKN100

4.000'den fazla havaalanı için hava durumu gözlemleri ve tahminleri (METAR ve TAF raporları).

Kullanılabilir istasyonlar harita üzerinde sarı ve kırmızı noktalarla gösterilir.

İstasyonun adını görmek için fareyi noktanın üzerinde gezdirin.

Sonrasında hava gözlem ve tahminlerini görmek için tıklayın.

Haritayı değiştirmek için: yaklaştırmak için siyah artı işaretli yeşil düğmeye ve uzaklaştırmak için de eksi işaretli düğmeye hızla tıklayın; bitişik haritalar için yeşil okları kullanın.


METAR-TAF: